sensor_id;sensor_type;location;lat;lon;timestamp;P1;durP1;ratioP1;P2;durP2;ratioP2
15043;SDS011;7619;48.562;8.910;2024-03-25T00:01:46;4.93;;;1.70;;
15043;SDS011;7619;48.562;8.910;2024-03-25T00:07:14;2.97;;;1.63;;
15043;SDS011;7619;48.562;8.910;2024-03-25T00:09:42;4.10;;;1.80;;
15043;SDS011;7619;48.562;8.910;2024-03-25T00:12:10;3.00;;;1.73;;
15043;SDS011;7619;48.562;8.910;2024-03-25T00:14:38;4.13;;;2.00;;
15043;SDS011;7619;48.562;8.910;2024-03-25T00:17:07;4.00;;;1.80;;
15043;SDS011;7619;48.562;8.910;2024-03-25T00:19:36;2.10;;;1.90;;
15043;SDS011;7619;48.562;8.910;2024-03-25T00:22:05;3.20;;;1.80;;
15043;SDS011;7619;48.562;8.910;2024-03-25T00:24:33;2.20;;;2.00;;
15043;SDS011;7619;48.562;8.910;2024-03-25T00:27:02;1.80;;;1.63;;
15043;SDS011;7619;48.562;8.910;2024-03-25T00:29:30;5.83;;;2.00;;
15043;SDS011;7619;48.562;8.910;2024-03-25T00:31:58;2.67;;;2.40;;
15043;SDS011;7619;48.562;8.910;2024-03-25T00:34:26;2.00;;;1.90;;
15043;SDS011;7619;48.562;8.910;2024-03-25T00:36:54;2.23;;;1.63;;
15043;SDS011;7619;48.562;8.910;2024-03-25T00:39:22;2.20;;;2.00;;
15043;SDS011;7619;48.562;8.910;2024-03-25T00:41:51;2.53;;;2.30;;
15043;SDS011;7619;48.562;8.910;2024-03-25T00:44:19;2.03;;;1.83;;
15043;SDS011;7619;48.562;8.910;2024-03-25T00:46:47;2.40;;;2.10;;
15043;SDS011;7619;48.562;8.910;2024-03-25T00:49:15;5.87;;;2.20;;
15043;SDS011;7619;48.562;8.910;2024-03-25T00:51:43;5.53;;;2.30;;
15043;SDS011;7619;48.562;8.910;2024-03-25T00:54:11;4.17;;;2.37;;
15043;SDS011;7619;48.562;8.910;2024-03-25T00:56:39;5.13;;;2.33;;
15043;SDS011;7619;48.562;8.910;2024-03-25T00:59:07;3.30;;;2.57;;
15043;SDS011;7619;48.562;8.910;2024-03-25T01:01:35;2.97;;;2.53;;
15043;SDS011;7619;48.562;8.910;2024-03-25T01:04:04;3.13;;;2.47;;
15043;SDS011;7619;48.562;8.910;2024-03-25T01:06:32;3.53;;;2.10;;
15043;SDS011;7619;48.562;8.910;2024-03-25T01:09:00;4.77;;;2.57;;
15043;SDS011;7619;48.562;8.910;2024-03-25T01:11:28;5.47;;;2.40;;
15043;SDS011;7619;48.562;8.910;2024-03-25T01:13:56;5.33;;;2.60;;
15043;SDS011;7619;48.562;8.910;2024-03-25T01:16:24;2.63;;;2.17;;
15043;SDS011;7619;48.562;8.910;2024-03-25T01:18:52;4.50;;;2.50;;
15043;SDS011;7619;48.562;8.910;2024-03-25T01:21:20;3.07;;;2.37;;
15043;SDS011;7619;48.562;8.910;2024-03-25T01:23:48;2.53;;;2.33;;
15043;SDS011;7619;48.562;8.910;2024-03-25T01:26:16;6.70;;;2.60;;
15043;SDS011;7619;48.562;8.910;2024-03-25T01:28:45;7.00;;;2.10;;
15043;SDS011;7619;48.562;8.910;2024-03-25T01:31:13;4.00;;;2.20;;
15043;SDS011;7619;48.562;8.910;2024-03-25T01:33:41;4.60;;;2.50;;
15043;SDS011;7619;48.562;8.910;2024-03-25T01:36:09;3.57;;;2.10;;
15043;SDS011;7619;48.562;8.910;2024-03-25T01:38:38;4.70;;;2.40;;
15043;SDS011;7619;48.562;8.910;2024-03-25T01:41:09;5.27;;;2.80;;
15043;SDS011;7619;48.562;8.910;2024-03-25T01:43:37;4.50;;;2.50;;
15043;SDS011;7619;48.562;8.910;2024-03-25T01:46:05;2.73;;;2.17;;
15043;SDS011;7619;48.562;8.910;2024-03-25T01:48:33;6.97;;;2.57;;
15043;SDS011;7619;48.562;8.910;2024-03-25T01:51:02;3.57;;;2.10;;
15043;SDS011;7619;48.562;8.910;2024-03-25T01:53:30;3.70;;;2.20;;
15043;SDS011;7619;48.562;8.910;2024-03-25T01:55:58;3.70;;;2.90;;
15043;SDS011;7619;48.562;8.910;2024-03-25T01:58:27;4.10;;;2.30;;
15043;SDS011;7619;48.562;8.910;2024-03-25T02:00:55;2.67;;;2.03;;
15043;SDS011;7619;48.562;8.910;2024-03-25T02:03:23;3.17;;;2.17;;
15043;SDS011;7619;48.562;8.910;2024-03-25T02:05:54;3.33;;;2.53;;
15043;SDS011;7619;48.562;8.910;2024-03-25T02:08:23;3.30;;;2.00;;
15043;SDS011;7619;48.562;8.910;2024-03-25T02:10:51;6.20;;;2.50;;
15043;SDS011;7619;48.562;8.910;2024-03-25T02:13:20;2.10;;;1.90;;
15043;SDS011;7619;48.562;8.910;2024-03-25T02:15:49;3.87;;;2.40;;
15043;SDS011;7619;48.562;8.910;2024-03-25T02:18:18;4.37;;;2.50;;
15043;SDS011;7619;48.562;8.910;2024-03-25T02:20:46;4.50;;;2.53;;
15043;SDS011;7619;48.562;8.910;2024-03-25T02:23:14;3.30;;;2.20;;
15043;SDS011;7619;48.562;8.910;2024-03-25T02:25:42;4.80;;;2.40;;
15043;SDS011;7619;48.562;8.910;2024-03-25T02:28:10;2.70;;;2.00;;
15043;SDS011;7619;48.562;8.910;2024-03-25T02:30:38;5.33;;;2.03;;
15043;SDS011;7619;48.562;8.910;2024-03-25T02:33:07;3.23;;;2.17;;
15043;SDS011;7619;48.562;8.910;2024-03-25T02:35:35;3.50;;;2.30;;
15043;SDS011;7619;48.562;8.910;2024-03-25T02:38:04;3.63;;;2.53;;
15043;SDS011;7619;48.562;8.910;2024-03-25T02:40:32;4.50;;;2.70;;
15043;SDS011;7619;48.562;8.910;2024-03-25T02:43:01;3.37;;;2.40;;
15043;SDS011;7619;48.562;8.910;2024-03-25T02:45:29;3.50;;;1.97;;
15043;SDS011;7619;48.562;8.910;2024-03-25T02:47:57;4.00;;;2.10;;
15043;SDS011;7619;48.562;8.910;2024-03-25T02:50:26;3.30;;;2.30;;
15043;SDS011;7619;48.562;8.910;2024-03-25T02:52:54;4.57;;;3.20;;
15043;SDS011;7619;48.562;8.910;2024-03-25T02:55:22;3.43;;;2.03;;
15043;SDS011;7619;48.562;8.910;2024-03-25T02:57:50;2.90;;;2.03;;
15043;SDS011;7619;48.562;8.910;2024-03-25T03:00:18;2.97;;;2.03;;
15043;SDS011;7619;48.562;8.910;2024-03-25T03:02:46;3.30;;;2.37;;
15043;SDS011;7619;48.562;8.910;2024-03-25T03:05:15;2.77;;;2.20;;
15043;SDS011;7619;48.562;8.910;2024-03-25T03:07:43;2.67;;;2.47;;
15043;SDS011;7619;48.562;8.910;2024-03-25T03:10:11;2.53;;;2.10;;
15043;SDS011;7619;48.562;8.910;2024-03-25T03:12:39;3.47;;;2.00;;
15043;SDS011;7619;48.562;8.910;2024-03-25T03:15:08;2.07;;;1.70;;
15043;SDS011;7619;48.562;8.910;2024-03-25T03:17:36;4.13;;;2.33;;
15043;SDS011;7619;48.562;8.910;2024-03-25T03:20:05;2.63;;;1.90;;
15043;SDS011;7619;48.562;8.910;2024-03-25T03:22:35;4.27;;;1.93;;
15043;SDS011;7619;48.562;8.910;2024-03-25T03:25:04;4.60;;;2.07;;
15043;SDS011;7619;48.562;8.910;2024-03-25T03:27:32;3.10;;;1.80;;
15043;SDS011;7619;48.562;8.910;2024-03-25T03:30:00;5.87;;;2.10;;
15043;SDS011;7619;48.562;8.910;2024-03-25T03:32:28;2.53;;;1.93;;
15043;SDS011;7619;48.562;8.910;2024-03-25T03:34:56;2.43;;;2.10;;
15043;SDS011;7619;48.562;8.910;2024-03-25T03:37:24;3.83;;;2.10;;
15043;SDS011;7619;48.562;8.910;2024-03-25T03:39:52;2.43;;;2.03;;
15043;SDS011;7619;48.562;8.910;2024-03-25T03:42:20;5.97;;;2.53;;
15043;SDS011;7619;48.562;8.910;2024-03-25T03:44:49;6.10;;;2.50;;
15043;SDS011;7619;48.562;8.910;2024-03-25T03:47:17;3.50;;;2.07;;
15043;SDS011;7619;48.562;8.910;2024-03-25T03:49:45;2.77;;;2.40;;
15043;SDS011;7619;48.562;8.910;2024-03-25T03:52:15;3.20;;;2.30;;
15043;SDS011;7619;48.562;8.910;2024-03-25T03:54:43;4.93;;;2.47;;
15043;SDS011;7619;48.562;8.910;2024-03-25T03:57:11;2.67;;;2.30;;
15043;SDS011;7619;48.562;8.910;2024-03-25T03:59:39;4.07;;;2.50;;
15043;SDS011;7619;48.562;8.910;2024-03-25T04:02:07;4.63;;;2.63;;
15043;SDS011;7619;48.562;8.910;2024-03-25T04:04:35;2.50;;;1.97;;
15043;SDS011;7619;48.562;8.910;2024-03-25T04:07:03;3.40;;;2.10;;
15043;SDS011;7619;48.562;8.910;2024-03-25T04:09:31;3.97;;;2.63;;
15043;SDS011;7619;48.562;8.910;2024-03-25T04:12:00;3.63;;;2.20;;
15043;SDS011;7619;48.562;8.910;2024-03-25T04:14:28;4.00;;;2.40;;
15043;SDS011;7619;48.562;8.910;2024-03-25T04:16:56;3.57;;;2.73;;
15043;SDS011;7619;48.562;8.910;2024-03-25T04:19:26;4.87;;;2.60;;
15043;SDS011;7619;48.562;8.910;2024-03-25T04:21:54;3.93;;;2.70;;
15043;SDS011;7619;48.562;8.910;2024-03-25T04:24:23;4.43;;;2.40;;
15043;SDS011;7619;48.562;8.910;2024-03-25T04:26:52;3.67;;;2.60;;
15043;SDS011;7619;48.562;8.910;2024-03-25T04:29:20;4.93;;;2.33;;
15043;SDS011;7619;48.562;8.910;2024-03-25T04:31:48;4.47;;;2.60;;
15043;SDS011;7619;48.562;8.910;2024-03-25T04:34:16;3.10;;;2.70;;
15043;SDS011;7619;48.562;8.910;2024-03-25T04:36:44;3.77;;;2.63;;
15043;SDS011;7619;48.562;8.910;2024-03-25T04:39:11;3.60;;;2.53;;
15043;SDS011;7619;48.562;8.910;2024-03-25T04:41:40;5.70;;;2.80;;
15043;SDS011;7619;48.562;8.910;2024-03-25T04:44:07;3.00;;;2.50;;
15043;SDS011;7619;48.562;8.910;2024-03-25T04:46:36;5.60;;;2.33;;
15043;SDS011;7619;48.562;8.910;2024-03-25T04:49:04;2.80;;;2.53;;
15043;SDS011;7619;48.562;8.910;2024-03-25T04:51:32;3.10;;;2.67;;
15043;SDS011;7619;48.562;8.910;2024-03-25T04:54:00;6.30;;;2.90;;
15043;SDS011;7619;48.562;8.910;2024-03-25T04:56:28;2.73;;;2.27;;
15043;SDS011;7619;48.562;8.910;2024-03-25T04:58:58;3.47;;;2.53;;
15043;SDS011;7619;48.562;8.910;2024-03-25T05:01:28;2.90;;;2.53;;
15043;SDS011;7619;48.562;8.910;2024-03-25T05:03:56;4.67;;;2.60;;
15043;SDS011;7619;48.562;8.910;2024-03-25T05:06:24;2.70;;;2.20;;
15043;SDS011;7619;48.562;8.910;2024-03-25T05:08:52;4.07;;;3.00;;
15043;SDS011;7619;48.562;8.910;2024-03-25T05:11:20;4.40;;;2.70;;
15043;SDS011;7619;48.562;8.910;2024-03-25T05:13:48;3.50;;;2.90;;
15043;SDS011;7619;48.562;8.910;2024-03-25T05:16:16;3.53;;;3.00;;
15043;SDS011;7619;48.562;8.910;2024-03-25T05:18:44;5.43;;;2.60;;
15043;SDS011;7619;48.562;8.910;2024-03-25T05:21:12;4.80;;;3.03;;
15043;SDS011;7619;48.562;8.910;2024-03-25T05:23:41;10.53;;;3.07;;
15043;SDS011;7619;48.562;8.910;2024-03-25T05:26:09;3.17;;;2.10;;
15043;SDS011;7619;48.562;8.910;2024-03-25T05:28:37;5.27;;;2.63;;
15043;SDS011;7619;48.562;8.910;2024-03-25T05:31:08;3.23;;;2.33;;
15043;SDS011;7619;48.562;8.910;2024-03-25T05:33:36;4.33;;;2.70;;
15043;SDS011;7619;48.562;8.910;2024-03-25T05:36:05;2.30;;;2.10;;
15043;SDS011;7619;48.562;8.910;2024-03-25T05:38:33;5.63;;;2.80;;
15043;SDS011;7619;48.562;8.910;2024-03-25T05:41:01;5.43;;;2.70;;
15043;SDS011;7619;48.562;8.910;2024-03-25T05:43:29;3.33;;;2.30;;
15043;SDS011;7619;48.562;8.910;2024-03-25T05:45:57;2.93;;;2.40;;
15043;SDS011;7619;48.562;8.910;2024-03-25T05:48:25;3.03;;;2.13;;
15043;SDS011;7619;48.562;8.910;2024-03-25T05:51:00;4.23;;;3.10;;
15043;SDS011;7619;48.562;8.910;2024-03-25T05:53:28;4.63;;;2.87;;
15043;SDS011;7619;48.562;8.910;2024-03-25T05:55:56;4.57;;;2.90;;
15043;SDS011;7619;48.562;8.910;2024-03-25T05:58:25;3.57;;;2.77;;
15043;SDS011;7619;48.562;8.910;2024-03-25T06:00:53;3.27;;;2.53;;
15043;SDS011;7619;48.562;8.910;2024-03-25T06:03:22;4.33;;;2.70;;
15043;SDS011;7619;48.562;8.910;2024-03-25T06:05:50;3.97;;;2.53;;
15043;SDS011;7619;48.562;8.910;2024-03-25T06:08:18;5.00;;;2.50;;
15043;SDS011;7619;48.562;8.910;2024-03-25T06:10:47;5.40;;;2.57;;
15043;SDS011;7619;48.562;8.910;2024-03-25T06:13:16;3.40;;;2.83;;
15043;SDS011;7619;48.562;8.910;2024-03-25T06:15:43;4.60;;;2.20;;
15043;SDS011;7619;48.562;8.910;2024-03-25T06:18:12;4.90;;;2.70;;
15043;SDS011;7619;48.562;8.910;2024-03-25T06:20:40;4.30;;;2.23;;
15043;SDS011;7619;48.562;8.910;2024-03-25T06:23:08;4.73;;;2.57;;
15043;SDS011;7619;48.562;8.910;2024-03-25T06:25:37;3.80;;;2.53;;
15043;SDS011;7619;48.562;8.910;2024-03-25T06:28:05;2.50;;;2.23;;
15043;SDS011;7619;48.562;8.910;2024-03-25T06:30:34;6.17;;;2.90;;
15043;SDS011;7619;48.562;8.910;2024-03-25T06:33:20;4.67;;;2.87;;
15043;SDS011;7619;48.562;8.910;2024-03-25T06:36:07;4.90;;;3.03;;
15043;SDS011;7619;48.562;8.910;2024-03-25T06:38:35;3.97;;;2.77;;
15043;SDS011;7619;48.562;8.910;2024-03-25T06:41:03;4.00;;;2.80;;
15043;SDS011;7619;48.562;8.910;2024-03-25T06:43:31;5.37;;;2.90;;
15043;SDS011;7619;48.562;8.910;2024-03-25T06:45:59;3.33;;;2.97;;
15043;SDS011;7619;48.562;8.910;2024-03-25T06:48:27;3.73;;;2.40;;
15043;SDS011;7619;48.562;8.910;2024-03-25T06:50:55;3.17;;;2.80;;
15043;SDS011;7619;48.562;8.910;2024-03-25T06:53:24;4.27;;;2.40;;
15043;SDS011;7619;48.562;8.910;2024-03-25T06:55:52;3.23;;;2.47;;
15043;SDS011;7619;48.562;8.910;2024-03-25T06:58:21;3.67;;;2.77;;
15043;SDS011;7619;48.562;8.910;2024-03-25T07:00:49;4.90;;;2.30;;
15043;SDS011;7619;48.562;8.910;2024-03-25T07:03:17;3.67;;;2.53;;
15043;SDS011;7619;48.562;8.910;2024-03-25T07:05:46;5.23;;;3.20;;
15043;SDS011;7619;48.562;8.910;2024-03-25T07:08:14;2.97;;;2.40;;
15043;SDS011;7619;48.562;8.910;2024-03-25T07:10:42;5.20;;;2.60;;
15043;SDS011;7619;48.562;8.910;2024-03-25T07:13:10;8.40;;;2.40;;
15043;SDS011;7619;48.562;8.910;2024-03-25T07:15:39;4.20;;;2.40;;
15043;SDS011;7619;48.562;8.910;2024-03-25T07:18:07;5.67;;;2.70;;
15043;SDS011;7619;48.562;8.910;2024-03-25T07:20:36;3.23;;;2.57;;
15043;SDS011;7619;48.562;8.910;2024-03-25T07:23:04;5.73;;;2.83;;
15043;SDS011;7619;48.562;8.910;2024-03-25T07:25:33;6.37;;;2.27;;
15043;SDS011;7619;48.562;8.910;2024-03-25T07:28:01;3.63;;;2.40;;
15043;SDS011;7619;48.562;8.910;2024-03-25T07:30:29;6.27;;;2.90;;
15043;SDS011;7619;48.562;8.910;2024-03-25T07:32:58;2.30;;;1.93;;
15043;SDS011;7619;48.562;8.910;2024-03-25T07:35:26;4.40;;;2.57;;
15043;SDS011;7619;48.562;8.910;2024-03-25T07:37:54;3.07;;;1.90;;
15043;SDS011;7619;48.562;8.910;2024-03-25T07:40:22;2.70;;;1.83;;
15043;SDS011;7619;48.562;8.910;2024-03-25T07:42:50;4.00;;;1.97;;
15043;SDS011;7619;48.562;8.910;2024-03-25T07:45:18;3.30;;;1.87;;
15043;SDS011;7619;48.562;8.910;2024-03-25T07:47:46;8.73;;;2.53;;
15043;SDS011;7619;48.562;8.910;2024-03-25T07:50:14;2.47;;;1.77;;
15043;SDS011;7619;48.562;8.910;2024-03-25T07:52:42;2.70;;;2.00;;
15043;SDS011;7619;48.562;8.910;2024-03-25T07:55:10;2.43;;;2.03;;
15043;SDS011;7619;48.562;8.910;2024-03-25T07:57:39;2.00;;;1.80;;
15043;SDS011;7619;48.562;8.910;2024-03-25T08:00:08;3.30;;;2.23;;
15043;SDS011;7619;48.562;8.910;2024-03-25T08:02:36;2.50;;;1.90;;
15043;SDS011;7619;48.562;8.910;2024-03-25T08:05:05;5.00;;;2.30;;
15043;SDS011;7619;48.562;8.910;2024-03-25T08:07:35;4.43;;;2.30;;
15043;SDS011;7619;48.562;8.910;2024-03-25T08:10:03;6.03;;;1.70;;
15043;SDS011;7619;48.562;8.910;2024-03-25T08:12:32;3.97;;;2.00;;
15043;SDS011;7619;48.562;8.910;2024-03-25T08:15:00;2.97;;;1.90;;
15043;SDS011;7619;48.562;8.910;2024-03-25T08:17:28;1.97;;;1.67;;
15043;SDS011;7619;48.562;8.910;2024-03-25T08:19:56;3.33;;;1.80;;
15043;SDS011;7619;48.562;8.910;2024-03-25T08:22:24;2.03;;;1.73;;
15043;SDS011;7619;48.562;8.910;2024-03-25T08:24:52;2.47;;;1.60;;
15043;SDS011;7619;48.562;8.910;2024-03-25T08:27:20;2.13;;;1.70;;
15043;SDS011;7619;48.562;8.910;2024-03-25T08:29:48;2.73;;;1.63;;
15043;SDS011;7619;48.562;8.910;2024-03-25T08:32:18;2.83;;;1.90;;
15043;SDS011;7619;48.562;8.910;2024-03-25T08:34:46;3.97;;;1.60;;
15043;SDS011;7619;48.562;8.910;2024-03-25T08:37:14;5.00;;;2.00;;
15043;SDS011;7619;48.562;8.910;2024-03-25T08:39:42;2.20;;;1.50;;
15043;SDS011;7619;48.562;8.910;2024-03-25T08:42:10;2.03;;;1.60;;
15043;SDS011;7619;48.562;8.910;2024-03-25T08:44:38;1.90;;;1.50;;
15043;SDS011;7619;48.562;8.910;2024-03-25T08:47:06;3.37;;;1.67;;
15043;SDS011;7619;48.562;8.910;2024-03-25T08:49:34;2.50;;;1.60;;
15043;SDS011;7619;48.562;8.910;2024-03-25T08:52:02;5.27;;;1.73;;
15043;SDS011;7619;48.562;8.910;2024-03-25T08:54:30;3.27;;;1.87;;
15043;SDS011;7619;48.562;8.910;2024-03-25T08:56:58;5.60;;;1.70;;
15043;SDS011;7619;48.562;8.910;2024-03-25T08:59:26;2.50;;;1.80;;
15043;SDS011;7619;48.562;8.910;2024-03-25T09:01:54;3.90;;;1.80;;
15043;SDS011;7619;48.562;8.910;2024-03-25T09:04:22;1.97;;;1.53;;
15043;SDS011;7619;48.562;8.910;2024-03-25T09:06:51;1.40;;;1.30;;
15043;SDS011;7619;48.562;8.910;2024-03-25T09:09:19;3.20;;;1.83;;
15043;SDS011;7619;48.562;8.910;2024-03-25T09:12:06;3.67;;;1.77;;
15043;SDS011;7619;48.562;8.910;2024-03-25T09:14:34;3.03;;;1.60;;
15043;SDS011;7619;48.562;8.910;2024-03-25T09:17:04;4.27;;;2.13;;
15043;SDS011;7619;48.562;8.910;2024-03-25T09:19:32;2.57;;;1.60;;
15043;SDS011;7619;48.562;8.910;2024-03-25T09:22:00;2.57;;;1.63;;
15043;SDS011;7619;48.562;8.910;2024-03-25T09:24:28;3.97;;;1.70;;
15043;SDS011;7619;48.562;8.910;2024-03-25T09:26:56;2.37;;;1.73;;
15043;SDS011;7619;48.562;8.910;2024-03-25T09:29:24;3.37;;;1.40;;
15043;SDS011;7619;48.562;8.910;2024-03-25T09:31:52;3.97;;;1.53;;
15043;SDS011;7619;48.562;8.910;2024-03-25T09:34:20;1.83;;;1.40;;
15043;SDS011;7619;48.562;8.910;2024-03-25T09:36:48;4.63;;;1.63;;
15043;SDS011;7619;48.562;8.910;2024-03-25T09:39:16;3.13;;;1.53;;
15043;SDS011;7619;48.562;8.910;2024-03-25T09:41:46;4.50;;;1.70;;
15043;SDS011;7619;48.562;8.910;2024-03-25T09:44:16;2.67;;;1.53;;
15043;SDS011;7619;48.562;8.910;2024-03-25T09:46:45;3.17;;;1.60;;
15043;SDS011;7619;48.562;8.910;2024-03-25T09:49:13;2.73;;;1.67;;
15043;SDS011;7619;48.562;8.910;2024-03-25T09:51:42;1.53;;;1.03;;
15043;SDS011;7619;48.562;8.910;2024-03-25T09:54:10;5.63;;;1.97;;
15043;SDS011;7619;48.562;8.910;2024-03-25T09:56:39;4.87;;;2.00;;
15043;SDS011;7619;48.562;8.910;2024-03-25T09:59:07;4.47;;;1.50;;
15043;SDS011;7619;48.562;8.910;2024-03-25T10:01:35;2.00;;;1.43;;
15043;SDS011;7619;48.562;8.910;2024-03-25T10:04:03;2.97;;;1.60;;
15043;SDS011;7619;48.562;8.910;2024-03-25T10:06:31;2.20;;;1.60;;
15043;SDS011;7619;48.562;8.910;2024-03-25T10:08:59;1.40;;;1.23;;
15043;SDS011;7619;48.562;8.910;2024-03-25T10:11:28;1.40;;;1.30;;
15043;SDS011;7619;48.562;8.910;2024-03-25T10:13:58;1.70;;;1.17;;
15043;SDS011;7619;48.562;8.910;2024-03-25T10:16:26;3.30;;;1.30;;
15043;SDS011;7619;48.562;8.910;2024-03-25T10:18:54;2.57;;;1.50;;
15043;SDS011;7619;48.562;8.910;2024-03-25T10:21:22;3.57;;;1.10;;
15043;SDS011;7619;48.562;8.910;2024-03-25T10:23:50;1.87;;;1.20;;
15043;SDS011;7619;48.562;8.910;2024-03-25T10:26:27;4.63;;;1.23;;
15043;SDS011;7619;48.562;8.910;2024-03-25T10:29:01;3.00;;;1.10;;
15043;SDS011;7619;48.562;8.910;2024-03-25T10:31:31;2.17;;;1.43;;
15043;SDS011;7619;48.562;8.910;2024-03-25T10:33:59;2.63;;;1.73;;
15043;SDS011;7619;48.562;8.910;2024-03-25T10:36:27;1.27;;;1.17;;
15043;SDS011;7619;48.562;8.910;2024-03-25T10:38:56;2.10;;;1.90;;
15043;SDS011;7619;48.562;8.910;2024-03-25T10:41:24;2.73;;;1.80;;
15043;SDS011;7619;48.562;8.910;2024-03-25T10:43:53;2.40;;;1.50;;
15043;SDS011;7619;48.562;8.910;2024-03-25T10:46:22;1.97;;;1.30;;
15043;SDS011;7619;48.562;8.910;2024-03-25T10:48:53;2.40;;;1.47;;
15043;SDS011;7619;48.562;8.910;2024-03-25T10:51:22;1.70;;;1.37;;
15043;SDS011;7619;48.562;8.910;2024-03-25T10:53:51;2.13;;;1.17;;
15043;SDS011;7619;48.562;8.910;2024-03-25T10:56:20;1.27;;;1.00;;
15043;SDS011;7619;48.562;8.910;2024-03-25T10:58:49;2.33;;;1.63;;
15043;SDS011;7619;48.562;8.910;2024-03-25T11:01:17;2.13;;;1.50;;
15043;SDS011;7619;48.562;8.910;2024-03-25T11:03:46;2.30;;;1.77;;
15043;SDS011;7619;48.562;8.910;2024-03-25T11:06:14;2.50;;;1.23;;
15043;SDS011;7619;48.562;8.910;2024-03-25T11:08:43;2.83;;;1.40;;
15043;SDS011;7619;48.562;8.910;2024-03-25T11:11:13;2.87;;;1.50;;
15043;SDS011;7619;48.562;8.910;2024-03-25T11:13:41;1.23;;;1.13;;
15043;SDS011;7619;48.562;8.910;2024-03-25T11:16:10;2.27;;;1.10;;
15043;SDS011;7619;48.562;8.910;2024-03-25T11:18:39;1.03;;;0.93;;
15043;SDS011;7619;48.562;8.910;2024-03-25T11:21:10;2.40;;;1.00;;
15043;SDS011;7619;48.562;8.910;2024-03-25T11:23:40;3.03;;;1.30;;
15043;SDS011;7619;48.562;8.910;2024-03-25T11:26:17;1.97;;;1.30;;
15043;SDS011;7619;48.562;8.910;2024-03-25T11:28:46;1.70;;;1.00;;
15043;SDS011;7619;48.562;8.910;2024-03-25T11:31:14;1.20;;;1.10;;
15043;SDS011;7619;48.562;8.910;2024-03-25T11:33:42;1.83;;;1.30;;
15043;SDS011;7619;48.562;8.910;2024-03-25T11:36:11;2.03;;;1.33;;
15043;SDS011;7619;48.562;8.910;2024-03-25T11:38:39;1.67;;;0.80;;
15043;SDS011;7619;48.562;8.910;2024-03-25T11:41:09;2.83;;;1.00;;
15043;SDS011;7619;48.562;8.910;2024-03-25T11:43:37;1.20;;;0.93;;
15043;SDS011;7619;48.562;8.910;2024-03-25T11:46:06;2.03;;;1.10;;
15043;SDS011;7619;48.562;8.910;2024-03-25T11:48:34;1.77;;;1.03;;
15043;SDS011;7619;48.562;8.910;2024-03-25T11:51:03;2.17;;;1.10;;
15043;SDS011;7619;48.562;8.910;2024-03-25T11:53:32;2.37;;;1.10;;
15043;SDS011;7619;48.562;8.910;2024-03-25T11:56:00;1.13;;;0.77;;
15043;SDS011;7619;48.562;8.910;2024-03-25T11:58:28;3.40;;;1.13;;
15043;SDS011;7619;48.562;8.910;2024-03-25T12:00:56;2.53;;;1.00;;
15043;SDS011;7619;48.562;8.910;2024-03-25T12:03:24;1.37;;;0.90;;
15043;SDS011;7619;48.562;8.910;2024-03-25T12:05:52;1.43;;;1.10;;
15043;SDS011;7619;48.562;8.910;2024-03-25T12:08:21;1.97;;;1.10;;
15043;SDS011;7619;48.562;8.910;2024-03-25T12:10:50;1.63;;;1.07;;
15043;SDS011;7619;48.562;8.910;2024-03-25T12:13:36;1.33;;;1.20;;
15043;SDS011;7619;48.562;8.910;2024-03-25T12:16:07;2.10;;;1.20;;
15043;SDS011;7619;48.562;8.910;2024-03-25T12:18:35;2.20;;;1.07;;
15043;SDS011;7619;48.562;8.910;2024-03-25T12:21:04;2.30;;;1.10;;
15043;SDS011;7619;48.562;8.910;2024-03-25T12:23:33;4.87;;;1.57;;
15043;SDS011;7619;48.562;8.910;2024-03-25T12:26:01;2.83;;;0.90;;
15043;SDS011;7619;48.562;8.910;2024-03-25T12:28:31;2.30;;;0.97;;
15043;SDS011;7619;48.562;8.910;2024-03-25T12:31:01;5.23;;;1.37;;
15043;SDS011;7619;48.562;8.910;2024-03-25T12:33:29;3.40;;;1.23;;
15043;SDS011;7619;48.562;8.910;2024-03-25T12:35:57;1.20;;;0.80;;
15043;SDS011;7619;48.562;8.910;2024-03-25T12:38:25;2.20;;;0.83;;
15043;SDS011;7619;48.562;8.910;2024-03-25T12:40:54;2.47;;;1.20;;
15043;SDS011;7619;48.562;8.910;2024-03-25T12:43:22;1.43;;;0.97;;
15043;SDS011;7619;48.562;8.910;2024-03-25T12:45:50;1.30;;;0.77;;
15043;SDS011;7619;48.562;8.910;2024-03-25T12:48:18;1.10;;;0.73;;
15043;SDS011;7619;48.562;8.910;2024-03-25T12:50:46;1.20;;;0.90;;
15043;SDS011;7619;48.562;8.910;2024-03-25T12:53:16;1.90;;;1.30;;
15043;SDS011;7619;48.562;8.910;2024-03-25T12:55:43;4.97;;;1.07;;
15043;SDS011;7619;48.562;8.910;2024-03-25T12:58:11;1.90;;;0.80;;
15043;SDS011;7619;48.562;8.910;2024-03-25T13:00:39;2.33;;;0.90;;
15043;SDS011;7619;48.562;8.910;2024-03-25T13:03:08;4.37;;;1.40;;
15043;SDS011;7619;48.562;8.910;2024-03-25T13:05:36;1.40;;;1.07;;
15043;SDS011;7619;48.562;8.910;2024-03-25T13:08:05;1.73;;;0.80;;
15043;SDS011;7619;48.562;8.910;2024-03-25T13:10:33;1.60;;;1.07;;
15043;SDS011;7619;48.562;8.910;2024-03-25T13:13:02;1.10;;;1.00;;
15043;SDS011;7619;48.562;8.910;2024-03-25T13:15:31;2.50;;;0.90;;
15043;SDS011;7619;48.562;8.910;2024-03-25T13:18:00;3.07;;;1.17;;
15043;SDS011;7619;48.562;8.910;2024-03-25T13:20:28;0.80;;;0.80;;
15043;SDS011;7619;48.562;8.910;2024-03-25T13:22:56;2.77;;;1.00;;
15043;SDS011;7619;48.562;8.910;2024-03-25T13:25:26;1.83;;;0.90;;
15043;SDS011;7619;48.562;8.910;2024-03-25T13:27:54;1.63;;;1.00;;
15043;SDS011;7619;48.562;8.910;2024-03-25T13:30:22;1.67;;;1.00;;
15043;SDS011;7619;48.562;8.910;2024-03-25T13:32:52;1.23;;;1.00;;
15043;SDS011;7619;48.562;8.910;2024-03-25T13:35:21;2.20;;;1.23;;
15043;SDS011;7619;48.562;8.910;2024-03-25T13:37:49;2.17;;;1.00;;
15043;SDS011;7619;48.562;8.910;2024-03-25T13:40:17;1.17;;;1.00;;
15043;SDS011;7619;48.562;8.910;2024-03-25T13:42:45;0.90;;;0.90;;
15043;SDS011;7619;48.562;8.910;2024-03-25T13:45:13;1.97;;;0.90;;
15043;SDS011;7619;48.562;8.910;2024-03-25T13:47:41;2.27;;;0.87;;
15043;SDS011;7619;48.562;8.910;2024-03-25T13:50:09;1.13;;;0.80;;
15043;SDS011;7619;48.562;8.910;2024-03-25T13:52:37;3.63;;;1.20;;
15043;SDS011;7619;48.562;8.910;2024-03-25T13:55:06;1.00;;;0.90;;
15043;SDS011;7619;48.562;8.910;2024-03-25T13:57:34;2.10;;;1.27;;
15043;SDS011;7619;48.562;8.910;2024-03-25T14:00:03;1.80;;;0.93;;
15043;SDS011;7619;48.562;8.910;2024-03-25T14:02:32;2.00;;;0.97;;
15043;SDS011;7619;48.562;8.910;2024-03-25T14:05:02;2.50;;;1.13;;
15043;SDS011;7619;48.562;8.910;2024-03-25T14:07:30;2.87;;;1.00;;
15043;SDS011;7619;48.562;8.910;2024-03-25T14:09:58;1.40;;;1.00;;
15043;SDS011;7619;48.562;8.910;2024-03-25T14:12:27;1.20;;;1.10;;
15043;SDS011;7619;48.562;8.910;2024-03-25T14:14:55;1.80;;;0.70;;
15043;SDS011;7619;48.562;8.910;2024-03-25T14:17:22;0.80;;;0.80;;
15043;SDS011;7619;48.562;8.910;2024-03-25T14:19:53;1.40;;;0.70;;
15043;SDS011;7619;48.562;8.910;2024-03-25T14:22:21;1.60;;;0.80;;
15043;SDS011;7619;48.562;8.910;2024-03-25T14:24:49;1.20;;;0.80;;
15043;SDS011;7619;48.562;8.910;2024-03-25T14:27:19;2.33;;;1.00;;
15043;SDS011;7619;48.562;8.910;2024-03-25T14:29:47;1.60;;;0.90;;
15043;SDS011;7619;48.562;8.910;2024-03-25T14:32:15;1.80;;;0.70;;
15043;SDS011;7619;48.562;8.910;2024-03-25T14:34:43;1.43;;;0.80;;
15043;SDS011;7619;48.562;8.910;2024-03-25T14:37:11;1.60;;;0.87;;
15043;SDS011;7619;48.562;8.910;2024-03-25T14:39:40;2.00;;;0.90;;
15043;SDS011;7619;48.562;8.910;2024-03-25T14:42:08;1.47;;;0.70;;
15043;SDS011;7619;48.562;8.910;2024-03-25T14:44:36;1.07;;;0.83;;
15043;SDS011;7619;48.562;8.910;2024-03-25T14:47:05;1.87;;;1.20;;
15043;SDS011;7619;48.562;8.910;2024-03-25T14:49:33;0.70;;;0.70;;
15043;SDS011;7619;48.562;8.910;2024-03-25T14:52:01;1.77;;;0.90;;
15043;SDS011;7619;48.562;8.910;2024-03-25T14:54:34;3.33;;;1.10;;
15043;SDS011;7619;48.562;8.910;2024-03-25T14:57:02;2.03;;;0.80;;
15043;SDS011;7619;48.562;8.910;2024-03-25T14:59:30;2.37;;;0.93;;
15043;SDS011;7619;48.562;8.910;2024-03-25T15:01:58;1.23;;;0.93;;
15043;SDS011;7619;48.562;8.910;2024-03-25T15:04:27;1.80;;;0.87;;
15043;SDS011;7619;48.562;8.910;2024-03-25T15:06:56;2.27;;;1.10;;
15043;SDS011;7619;48.562;8.910;2024-03-25T15:09:25;1.13;;;0.87;;
15043;SDS011;7619;48.562;8.910;2024-03-25T15:11:53;1.67;;;1.00;;